sensor_id;sensor_type;location;lat;lon;timestamp;pressure;altitude;pressure_sealevel;temperature;humidity
80988;BME280;70452;39.386;-3.210;2023-07-24T00:01:30;93908.66;;;27.98;18.72
80988;BME280;70452;39.386;-3.210;2023-07-24T00:03:59;93914.28;;;27.98;18.52
80988;BME280;70452;39.386;-3.210;2023-07-24T00:06:31;93911.06;;;27.96;18.45
80988;BME280;70452;39.386;-3.210;2023-07-24T00:12:07;93908.25;;;27.89;18.80
80988;BME280;70452;39.386;-3.210;2023-07-24T00:15:01;93913.47;;;27.83;17.99
80988;BME280;70452;39.386;-3.210;2023-07-24T00:17:39;93905.06;;;27.73;18.29
80988;BME280;70452;39.386;-3.210;2023-07-24T00:20:22;93910.66;;;27.73;19.28
80988;BME280;70452;39.386;-3.210;2023-07-24T00:23:03;93911.06;;;27.71;18.85
80988;BME280;70452;39.386;-3.210;2023-07-24T00:25:49;93913.84;;;27.71;18.68
80988;BME280;70452;39.386;-3.210;2023-07-24T00:28:24;93908.25;;;27.67;18.97
80988;BME280;70452;39.386;-3.210;2023-07-24T00:30:59;93909.06;;;27.54;18.57
80988;BME280;70452;39.386;-3.210;2023-07-24T00:33:33;93907.44;;;27.45;18.33
80988;BME280;70452;39.386;-3.210;2023-07-24T00:36:20;93899.06;;;27.42;18.71
80988;BME280;70452;39.386;-3.210;2023-07-24T00:38:57;93893.47;;;27.35;18.45
80988;BME280;70452;39.386;-3.210;2023-07-24T00:41:31;93883.03;;;27.21;18.16
80988;BME280;70452;39.386;-3.210;2023-07-24T00:44:28;93879.44;;;27.13;19.00
80988;BME280;70452;39.386;-3.210;2023-07-24T00:47:08;93878.22;;;27.18;18.93
80988;BME280;70452;39.386;-3.210;2023-07-24T00:49:37;93883.41;;;27.16;19.30
80988;BME280;70452;39.386;-3.210;2023-07-24T00:52:30;93877.03;;;27.22;19.25
80988;BME280;70452;39.386;-3.210;2023-07-24T00:55:08;93869.44;;;27.16;18.82
80988;BME280;70452;39.386;-3.210;2023-07-24T00:57:49;93873.44;;;27.15;19.34
80988;BME280;70452;39.386;-3.210;2023-07-24T01:00:27;93867.03;;;27.21;19.31
80988;BME280;70452;39.386;-3.210;2023-07-24T01:03:05;93867.03;;;27.25;18.98
80988;BME280;70452;39.386;-3.210;2023-07-24T01:06:04;93860.66;;;27.13;19.80
80988;BME280;70452;39.386;-3.210;2023-07-24T01:08:50;93859.06;;;27.16;19.06
80988;BME280;70452;39.386;-3.210;2023-07-24T01:11:26;93855.06;;;27.17;20.15
80988;BME280;70452;39.386;-3.210;2023-07-24T01:14:14;93850.25;;;27.10;18.70
80988;BME280;70452;39.386;-3.210;2023-07-24T01:19:59;93848.53;;;26.59;18.45
80988;BME280;70452;39.386;-3.210;2023-07-24T01:23:13;93841.13;;;26.11;18.80
80988;BME280;70452;39.386;-3.210;2023-07-24T01:26:00;93849.25;;;26.34;19.40
80988;BME280;70452;39.386;-3.210;2023-07-24T01:28:42;93841.50;;;26.02;19.02
80988;BME280;70452;39.386;-3.210;2023-07-24T01:31:21;93848.81;;;26.25;19.24
80988;BME280;70452;39.386;-3.210;2023-07-24T01:34:02;93846.03;;;26.29;18.80
80988;BME280;70452;39.386;-3.210;2023-07-24T01:36:44;93850.44;;;26.37;18.84
80988;BME280;70452;39.386;-3.210;2023-07-24T01:39:26;93862.84;;;26.43;19.05
80988;BME280;70452;39.386;-3.210;2023-07-24T01:41:58;93865.66;;;26.50;18.40
80988;BME280;70452;39.386;-3.210;2023-07-24T01:44:38;93874.81;;;26.47;18.71
80988;BME280;70452;39.386;-3.210;2023-07-24T01:47:24;93876.81;;;26.47;19.05
80988;BME280;70452;39.386;-3.210;2023-07-24T01:50:08;93877.16;;;26.34;19.69
80988;BME280;70452;39.386;-3.210;2023-07-24T01:53:04;93866.41;;;26.36;19.79
80988;BME280;70452;39.386;-3.210;2023-07-24T01:55:41;93854.81;;;26.34;19.74
80988;BME280;70452;39.386;-3.210;2023-07-24T01:58:29;93844.81;;;26.30;20.21
80988;BME280;70452;39.386;-3.210;2023-07-24T02:01:15;93847.22;;;26.28;20.73
80988;BME280;70452;39.386;-3.210;2023-07-24T02:03:52;93833.63;;;26.26;20.63
80988;BME280;70452;39.386;-3.210;2023-07-24T02:06:28;93835.22;;;26.20;20.71
80988;BME280;70452;39.386;-3.210;2023-07-24T02:09:02;93853.97;;;26.23;20.88
80988;BME280;70452;39.386;-3.210;2023-07-24T02:11:37;93845.19;;;26.25;20.86
80988;BME280;70452;39.386;-3.210;2023-07-24T02:14:09;93849.97;;;26.17;21.12
80988;BME280;70452;39.386;-3.210;2023-07-24T02:16:51;93850.34;;;26.12;21.76
80988;BME280;70452;39.386;-3.210;2023-07-24T02:19:32;93841.47;;;25.99;21.78
80988;BME280;70452;39.386;-3.210;2023-07-24T02:22:09;93833.50;;;25.97;22.06
80988;BME280;70452;39.386;-3.210;2023-07-24T02:25:00;93840.25;;;25.93;22.25
80988;BME280;70452;39.386;-3.210;2023-07-24T02:27:32;93838.56;;;25.81;22.85
80988;BME280;70452;39.386;-3.210;2023-07-24T02:30:12;93839.31;;;25.71;22.73
80988;BME280;70452;39.386;-3.210;2023-07-24T02:32:48;93844.91;;;25.74;22.82
80988;BME280;70452;39.386;-3.210;2023-07-24T02:35:31;93846.06;;;25.70;22.75
80988;BME280;70452;39.386;-3.210;2023-07-24T02:38:05;93845.56;;;25.53;23.29
80988;BME280;70452;39.386;-3.210;2023-07-24T02:43:40;93840.38;;;25.52;23.05
80988;BME280;70452;39.386;-3.210;2023-07-24T02:46:28;93848.25;;;25.42;23.23
80988;BME280;70452;39.386;-3.210;2023-07-24T02:49:05;93850.25;;;25.42;23.52
80988;BME280;70452;39.386;-3.210;2023-07-24T02:51:34;93864.16;;;25.38;23.41
80988;BME280;70452;39.386;-3.210;2023-07-24T02:54:18;93855.09;;;25.49;23.52
80988;BME280;70452;39.386;-3.210;2023-07-24T02:56:55;93864.22;;;25.45;23.37
80988;BME280;70452;39.386;-3.210;2023-07-24T02:59:27;93859.03;;;25.48;23.34
80988;BME280;70452;39.386;-3.210;2023-07-24T03:02:04;93871.00;;;25.44;23.42
80988;BME280;70452;39.386;-3.210;2023-07-24T03:05:03;93871.00;;;25.44;23.33
80988;BME280;70452;39.386;-3.210;2023-07-24T03:07:50;93867.75;;;25.39;23.54
80988;BME280;70452;39.386;-3.210;2023-07-24T03:10:31;93867.75;;;25.39;23.59
80988;BME280;70452;39.386;-3.210;2023-07-24T03:12:59;93853.75;;;25.32;23.34
80988;BME280;70452;39.386;-3.210;2023-07-24T03:15:44;93860.97;;;25.36;23.59
80988;BME280;70452;39.386;-3.210;2023-07-24T03:18:28;93861.72;;;25.33;23.81
80988;BME280;70452;39.386;-3.210;2023-07-24T03:20:57;93866.50;;;25.29;23.66
80988;BME280;70452;39.386;-3.210;2023-07-24T03:23:37;93858.19;;;25.36;23.67
80988;BME280;70452;39.386;-3.210;2023-07-24T03:26:22;93864.50;;;25.30;23.83
80988;BME280;70452;39.386;-3.210;2023-07-24T03:29:10;93873.63;;;25.26;23.80
80988;BME280;70452;39.386;-3.210;2023-07-24T03:31:57;93881.50;;;25.21;24.22
80988;BME280;70452;39.386;-3.210;2023-07-24T03:34:37;93874.84;;;25.29;24.25
80988;BME280;70452;39.386;-3.210;2023-07-24T03:37:11;93875.31;;;25.38;23.83
80988;BME280;70452;39.386;-3.210;2023-07-24T03:40:11;93879.59;;;25.29;23.95
80988;BME280;70452;39.386;-3.210;2023-07-24T03:42:52;93877.53;;;25.22;23.98
80988;BME280;70452;39.386;-3.210;2023-07-24T03:45:39;93886.28;;;25.20;24.16
80988;BME280;70452;39.386;-3.210;2023-07-24T03:48:18;93881.94;;;25.23;24.25
80988;BME280;70452;39.386;-3.210;2023-07-24T03:51:19;93874.66;;;25.11;24.39
80988;BME280;70452;39.386;-3.210;2023-07-24T03:53:56;93883.44;;;25.17;24.57
80988;BME280;70452;39.386;-3.210;2023-07-24T03:56:38;93885.97;;;25.25;24.23
80988;BME280;70452;39.386;-3.210;2023-07-24T03:59:14;93879.13;;;25.23;24.52
80988;BME280;70452;39.386;-3.210;2023-07-24T04:01:57;93870.22;;;25.06;24.53
80988;BME280;70452;39.386;-3.210;2023-07-24T04:04:35;93884.81;;;24.93;24.83
80988;BME280;70452;39.386;-3.210;2023-07-24T04:07:10;93877.88;;;24.76;24.78
80988;BME280;70452;39.386;-3.210;2023-07-24T04:12:46;93889.91;;;24.53;25.61
80988;BME280;70452;39.386;-3.210;2023-07-24T04:15:21;93882.22;;;24.43;25.88
80988;BME280;70452;39.386;-3.210;2023-07-24T04:18:11;93888.22;;;24.41;26.44
80988;BME280;70452;39.386;-3.210;2023-07-24T04:20:58;93888.25;;;24.45;25.99
80988;BME280;70452;39.386;-3.210;2023-07-24T04:23:33;93894.50;;;24.34;26.22
80988;BME280;70452;39.386;-3.210;2023-07-24T04:26:16;93894.31;;;24.24;26.47
80988;BME280;70452;39.386;-3.210;2023-07-24T04:28:58;93890.28;;;24.18;26.38
80988;BME280;70452;39.386;-3.210;2023-07-24T04:31:30;93888.63;;;24.13;26.99
80988;BME280;70452;39.386;-3.210;2023-07-24T04:34:16;93896.13;;;24.09;27.12
80988;BME280;70452;39.386;-3.210;2023-07-24T04:37:08;93904.81;;;24.04;27.04
80988;BME280;70452;39.386;-3.210;2023-07-24T04:39:57;93906.44;;;24.08;27.08
80988;BME280;70452;39.386;-3.210;2023-07-24T04:42:43;93908.72;;;23.99;26.87
80988;BME280;70452;39.386;-3.210;2023-07-24T04:45:21;93905.22;;;24.06;26.95
80988;BME280;70452;39.386;-3.210;2023-07-24T04:47:58;93907.69;;;24.11;27.20
80988;BME280;70452;39.386;-3.210;2023-07-24T04:50:27;93913.72;;;24.17;27.13
80988;BME280;70452;39.386;-3.210;2023-07-24T04:53:10;93917.19;;;24.10;27.35
80988;BME280;70452;39.386;-3.210;2023-07-24T04:55:38;93910.94;;;24.17;27.11
80988;BME280;70452;39.386;-3.210;2023-07-24T04:58:19;93911.31;;;24.15;27.16
80988;BME280;70452;39.386;-3.210;2023-07-24T05:01:05;93902.97;;;24.15;27.42
80988;BME280;70452;39.386;-3.210;2023-07-24T05:03:56;93912.06;;;24.12;27.43
80988;BME280;70452;39.386;-3.210;2023-07-24T05:06:57;93907.69;;;24.11;27.07
80988;BME280;70452;39.386;-3.210;2023-07-24T05:09:37;93902.44;;;24.06;27.45
80988;BME280;70452;39.386;-3.210;2023-07-24T05:12:17;93899.94;;;23.97;27.54
80988;BME280;70452;39.386;-3.210;2023-07-24T05:14:51;93897.97;;;23.98;27.22
80988;BME280;70452;39.386;-3.210;2023-07-24T05:17:26;93903.56;;;24.01;27.70
80988;BME280;70452;39.386;-3.210;2023-07-24T05:20:20;93907.31;;;24.12;27.45
80988;BME280;70452;39.386;-3.210;2023-07-24T05:22:59;93902.16;;;24.14;27.20
80988;BME280;70452;39.386;-3.210;2023-07-24T05:25:42;93901.50;;;24.25;27.30
80988;BME280;70452;39.386;-3.210;2023-07-24T05:28:11;93901.69;;;24.39;26.80
80988;BME280;70452;39.386;-3.210;2023-07-24T05:30:44;93896.69;;;24.52;26.93
80988;BME280;70452;39.386;-3.210;2023-07-24T05:33:22;93896.56;;;24.75;26.51
80988;BME280;70452;39.386;-3.210;2023-07-24T05:36:00;93899.97;;;24.95;26.13
80988;BME280;70452;39.386;-3.210;2023-07-24T05:38:44;93909.63;;;25.05;26.30
80988;BME280;70452;39.386;-3.210;2023-07-24T05:41:20;93922.94;;;25.22;26.01
80988;BME280;70452;39.386;-3.210;2023-07-24T05:43:55;93924.69;;;25.34;26.10
80988;BME280;70452;39.386;-3.210;2023-07-24T05:46:24;93929.66;;;25.55;25.65
80988;BME280;70452;39.386;-3.210;2023-07-24T05:48:59;93924.38;;;25.43;25.75
80988;BME280;70452;39.386;-3.210;2023-07-24T05:52:02;93928.69;;;25.37;25.86
80988;BME280;70452;39.386;-3.210;2023-07-24T05:54:46;93928.53;;;25.22;25.99
80988;BME280;70452;39.386;-3.210;2023-07-24T05:57:33;93948.75;;;24.78;26.59
80988;BME280;70452;39.386;-3.210;2023-07-24T06:00:08;93946.63;;;24.68;26.74
80988;BME280;70452;39.386;-3.210;2023-07-24T06:02:43;93953.81;;;24.69;26.74
80988;BME280;70452;39.386;-3.210;2023-07-24T06:05:21;93963.59;;;24.29;27.67
80988;BME280;70452;39.386;-3.210;2023-07-24T06:08:04;93965.06;;;24.19;27.62
80988;BME280;70452;39.386;-3.210;2023-07-24T06:10:53;93955.53;;;23.93;28.18
80988;BME280;70452;39.386;-3.210;2023-07-24T06:13:53;93946.31;;;23.89;28.24
80988;BME280;70452;39.386;-3.210;2023-07-24T06:16:27;93955.97;;;23.95;27.88
80988;BME280;70452;39.386;-3.210;2023-07-24T06:19:10;93958.09;;;24.06;28.06
80988;BME280;70452;39.386;-3.210;2023-07-24T06:21:47;93954.09;;;24.60;26.91
80988;BME280;70452;39.386;-3.210;2023-07-24T06:24:31;93952.41;;;25.64;25.77
80988;BME280;70452;39.386;-3.210;2023-07-24T06:27:26;93960.06;;;26.27;24.21
80988;BME280;70452;39.386;-3.210;2023-07-24T06:30:09;93978.75;;;26.82;23.49
80988;BME280;70452;39.386;-3.210;2023-07-24T06:32:38;93977.16;;;26.81;23.45
80988;BME280;70452;39.386;-3.210;2023-07-24T06:35:18;93982.91;;;27.17;23.15
80988;BME280;70452;39.386;-3.210;2023-07-24T06:37:55;93965.63;;;26.93;23.06
80988;BME280;70452;39.386;-3.210;2023-07-24T06:40:36;93968.59;;;27.47;22.52
80988;BME280;70452;39.386;-3.210;2023-07-24T06:43:17;93977.88;;;28.01;21.84
80988;BME280;70452;39.386;-3.210;2023-07-24T06:46:12;93972.63;;;28.57;21.17
80988;BME280;70452;39.386;-3.210;2023-07-24T06:49:02;93969.28;;;28.95;20.70
80988;BME280;70452;39.386;-3.210;2023-07-24T06:51:46;93963.88;;;29.40;20.39
80988;BME280;70452;39.386;-3.210;2023-07-24T06:54:26;93957.63;;;29.74;19.79
80988;BME280;70452;39.386;-3.210;2023-07-24T06:56:59;93958.88;;;30.22;19.75
80988;BME280;70452;39.386;-3.210;2023-07-24T06:59:50;93952.25;;;29.98;19.90
80988;BME280;70452;39.386;-3.210;2023-07-24T07:02:34;93959.53;;;30.40;19.48
80988;BME280;70452;39.386;-3.210;2023-07-24T07:05:07;93958.00;;;30.28;19.33
80988;BME280;70452;39.386;-3.210;2023-07-24T07:07:49;93959.25;;;29.75;19.43
80988;BME280;70452;39.386;-3.210;2023-07-24T07:10:33;93961.97;;;29.86;19.53
80988;BME280;70452;39.386;-3.210;2023-07-24T07:13:14;93959.63;;;29.81;19.30
80988;BME280;70452;39.386;-3.210;2023-07-24T07:15:49;93972.91;;;29.73;19.49
80988;BME280;70452;39.386;-3.210;2023-07-24T07:18:24;93974.59;;;29.56;19.67
80988;BME280;70452;39.386;-3.210;2023-07-24T07:21:05;93979.59;;;29.27;20.17
80988;BME280;70452;39.386;-3.210;2023-07-24T07:23:36;93982.56;;;29.65;19.76
80988;BME280;70452;39.386;-3.210;2023-07-24T07:26:07;93977.72;;;29.72;19.40
80988;BME280;70452;39.386;-3.210;2023-07-24T07:28:39;93970.13;;;30.22;18.88
80988;BME280;70452;39.386;-3.210;2023-07-24T07:31:33;93978.09;;;29.78;19.48
80988;BME280;70452;39.386;-3.210;2023-07-24T07:34:20;93981.19;;;29.91;19.25
80988;BME280;70452;39.386;-3.210;2023-07-24T07:37:14;93985.81;;;30.19;19.09
80988;BME280;70452;39.386;-3.210;2023-07-24T07:39:43;93975.50;;;30.51;18.67
80988;BME280;70452;39.386;-3.210;2023-07-24T07:42:24;93972.09;;;30.66;18.72
80988;BME280;70452;39.386;-3.210;2023-07-24T07:45:04;93977.91;;;30.52;18.82
80988;BME280;70452;39.386;-3.210;2023-07-24T07:47:39;93971.50;;;30.48;19.18
80988;BME280;70452;39.386;-3.210;2023-07-24T07:50:20;93974.78;;;30.77;19.11
80988;BME280;70452;39.386;-3.210;2023-07-24T07:53:11;93980.63;;;30.14;19.25
80988;BME280;70452;39.386;-3.210;2023-07-24T07:55:43;93977.16;;;30.44;19.07
80988;BME280;70452;39.386;-3.210;2023-07-24T07:58:15;93979.28;;;30.71;18.52
80988;BME280;70452;39.386;-3.210;2023-07-24T08:00:54;93977.59;;;30.77;18.39
80988;BME280;70452;39.386;-3.210;2023-07-24T08:03:35;93973.28;;;31.07;18.53
80988;BME280;70452;39.386;-3.210;2023-07-24T08:06:19;93977.22;;;31.13;18.02
80988;BME280;70452;39.386;-3.210;2023-07-24T08:08:55;93979.44;;;31.29;18.02
80988;BME280;70452;39.386;-3.210;2023-07-24T08:14:26;93964.34;;;31.16;17.66
80988;BME280;70452;39.386;-3.210;2023-07-24T08:17:01;93956.53;;;30.93;17.66
80988;BME280;70452;39.386;-3.210;2023-07-24T08:19:38;93955.56;;;30.76;18.39
80988;BME280;70452;39.386;-3.210;2023-07-24T08:22:15;93952.41;;;31.04;17.77
80988;BME280;70452;39.386;-3.210;2023-07-24T08:24:49;93947.59;;;31.05;17.95
80988;BME280;70452;39.386;-3.210;2023-07-24T08:27:20;93954.63;;;31.20;17.58
80988;BME280;70452;39.386;-3.210;2023-07-24T08:30:29;93950.88;;;31.31;17.86
80988;BME280;70452;39.386;-3.210;2023-07-24T08:33:01;93946.63;;;31.50;17.33
80988;BME280;70452;39.386;-3.210;2023-07-24T08:35:36;93953.66;;;31.89;16.22
80988;BME280;70452;39.386;-3.210;2023-07-24T08:38:10;93947.59;;;32.18;16.48
80988;BME280;70452;39.386;-3.210;2023-07-24T08:43:37;93947.19;;;31.92;15.77
80988;BME280;70452;39.386;-3.210;2023-07-24T08:46:11;93940.06;;;32.11;15.98
80988;BME280;70452;39.386;-3.210;2023-07-24T08:48:46;93947.53;;;31.94;16.74
80988;BME280;70452;39.386;-3.210;2023-07-24T08:51:15;93937.59;;;32.37;16.17
80988;BME280;70452;39.386;-3.210;2023-07-24T08:53:53;93933.50;;;32.41;15.33
80988;BME280;70452;39.386;-3.210;2023-07-24T08:56:33;93940.56;;;32.02;15.96
80988;BME280;70452;39.386;-3.210;2023-07-24T08:59:13;93944.34;;;32.43;15.63
80988;BME280;70452;39.386;-3.210;2023-07-24T09:01:48;93941.44;;;32.70;14.70
80988;BME280;70452;39.386;-3.210;2023-07-24T09:04:35;93939.66;;;32.56;15.12
80988;BME280;70452;39.386;-3.210;2023-07-24T09:07:13;93936.88;;;32.32;13.85
80988;BME280;70452;39.386;-3.210;2023-07-24T09:09:53;93944.97;;;32.30;14.30
80988;BME280;70452;39.386;-3.210;2023-07-24T09:12:26;93939.75;;;32.29;14.02
80988;BME280;70452;39.386;-3.210;2023-07-24T09:15:06;93939.06;;;32.21;14.60
80988;BME280;70452;39.386;-3.210;2023-07-24T09:18:01;93929.88;;;32.41;13.63
80988;BME280;70452;39.386;-3.210;2023-07-24T09:20:54;93936.34;;;32.61;13.79
80988;BME280;70452;39.386;-3.210;2023-07-24T09:23:30;93930.53;;;32.72;13.71
80988;BME280;70452;39.386;-3.210;2023-07-24T09:26:10;93936.81;;;32.80;13.03
80988;BME280;70452;39.386;-3.210;2023-07-24T09:28:56;93930.75;;;33.01;12.99
80988;BME280;70452;39.386;-3.210;2023-07-24T09:31:58;93939.09;;;33.29;13.16
80988;BME280;70452;39.386;-3.210;2023-07-24T09:34:31;93936.25;;;33.08;12.47
80988;BME280;70452;39.386;-3.210;2023-07-24T09:37:11;93934.63;;;33.07;11.99
80988;BME280;70452;39.386;-3.210;2023-07-24T09:39:49;93927.22;;;32.77;11.87
80988;BME280;70452;39.386;-3.210;2023-07-24T09:42:26;93934.56;;;32.71;12.96
80988;BME280;70452;39.386;-3.210;2023-07-24T09:45:05;93935.72;;;32.94;12.67
80988;BME280;70452;39.386;-3.210;2023-07-24T09:47:50;93934.72;;;33.04;12.66
80988;BME280;70452;39.386;-3.210;2023-07-24T09:50:26;93928.81;;;33.18;11.61
80988;BME280;70452;39.386;-3.210;2023-07-24T09:53:10;93932.34;;;33.22;12.11
80988;BME280;70452;39.386;-3.210;2023-07-24T09:56:05;93929.31;;;33.13;11.66
80988;BME280;70452;39.386;-3.210;2023-07-24T09:58:38;93932.78;;;33.21;11.90
80988;BME280;70452;39.386;-3.210;2023-07-24T10:01:22;93922.59;;;33.43;12.07
80988;BME280;70452;39.386;-3.210;2023-07-24T10:04:19;93922.84;;;33.69;11.42
80988;BME280;70452;39.386;-3.210;2023-07-24T10:06:56;93918.50;;;33.64;11.93
80988;BME280;70452;39.386;-3.210;2023-07-24T10:09:30;93924.03;;;33.52;12.06
80988;BME280;70452;39.386;-3.210;2023-07-24T10:12:12;93925.31;;;33.31;11.70
80988;BME280;70452;39.386;-3.210;2023-07-24T10:14:49;93922.50;;;33.67;10.77
80988;BME280;70452;39.386;-3.210;2023-07-24T10:18:00;93922.72;;;33.56;11.75
80988;BME280;70452;39.386;-3.210;2023-07-24T10:20:40;93919.91;;;33.56;11.69
80988;BME280;70452;39.386;-3.210;2023-07-24T10:23:17;93936.53;;;33.71;11.22
80988;BME280;70452;39.386;-3.210;2023-07-24T10:26:01;93926.94;;;33.68;10.29
80988;BME280;70452;39.386;-3.210;2023-07-24T10:28:34;93927.81;;;33.81;10.88
80988;BME280;70452;39.386;-3.210;2023-07-24T10:31:22;93921.91;;;34.09;10.92
80988;BME280;70452;39.386;-3.210;2023-07-24T10:33:54;93922.97;;;34.15;10.17
80988;BME280;70452;39.386;-3.210;2023-07-24T10:36:35;93917.13;;;34.06;10.42
80988;BME280;70452;39.386;-3.210;2023-07-24T10:39:20;93913.53;;;34.22;10.12
80988;BME280;70452;39.386;-3.210;2023-07-24T10:42:10;93905.47;;;34.04;10.14
80988;BME280;70452;39.386;-3.210;2023-07-24T10:45:13;93909.28;;;34.13;9.30
80988;BME280;70452;39.386;-3.210;2023-07-24T10:47:59;93919.00;;;34.29;9.78
80988;BME280;70452;39.386;-3.210;2023-07-24T10:50:48;93906.38;;;34.33;10.20
80988;BME280;70452;39.386;-3.210;2023-07-24T10:53:23;93903.03;;;34.22;10.32
80988;BME280;70452;39.386;-3.210;2023-07-24T10:56:08;93895.88;;;34.01;10.37
80988;BME280;70452;39.386;-3.210;2023-07-24T10:58:44;93889.69;;;34.06;9.95
80988;BME280;70452;39.386;-3.210;2023-07-24T11:01:19;93898.88;;;34.27;10.02
80988;BME280;70452;39.386;-3.210;2023-07-24T11:04:00;93896.50;;;34.25;9.71
80988;BME280;70452;39.386;-3.210;2023-07-24T11:06:40;93888.59;;;34.49;9.68
80988;BME280;70452;39.386;-3.210;2023-07-24T11:09:11;93893.63;;;34.42;8.89
80988;BME280;70452;39.386;-3.210;2023-07-24T11:12:14;93893.84;;;34.64;9.19
80988;BME280;70452;39.386;-3.210;2023-07-24T11:14:54;93892.84;;;34.70;8.89
80988;BME280;70452;39.386;-3.210;2023-07-24T11:17:38;93890.31;;;34.60;8.99
80988;BME280;70452;39.386;-3.210;2023-07-24T11:20:19;93889.06;;;34.61;8.93
80988;BME280;70452;39.386;-3.210;2023-07-24T11:22:47;93886.84;;;34.68;8.36
80988;BME280;70452;39.386;-3.210;2023-07-24T11:25:23;93878.25;;;35.01;8.07
80988;BME280;70452;39.386;-3.210;2023-07-24T11:27:58;93885.34;;;34.93;7.96
80988;BME280;70452;39.386;-3.210;2023-07-24T11:30:37;93872.59;;;35.01;8.20
80988;BME280;70452;39.386;-3.210;2023-07-24T11:33:21;93878.97;;;35.18;7.87
80988;BME280;70452;39.386;-3.210;2023-07-24T11:35:57;93857.41;;;34.95;7.95
80988;BME280;70452;39.386;-3.210;2023-07-24T11:38:32;93871.53;;;34.82;8.13
80988;BME280;70452;39.386;-3.210;2023-07-24T11:41:07;93870.31;;;34.83;8.21
80988;BME280;70452;39.386;-3.210;2023-07-24T11:43:54;93864.97;;;34.85;8.57
80988;BME280;70452;39.386;-3.210;2023-07-24T11:46:40;93868.75;;;35.08;8.12
80988;BME280;70452;39.386;-3.210;2023-07-24T11:49:22;93852.91;;;34.98;8.16
80988;BME280;70452;39.386;-3.210;2023-07-24T11:52:10;93856.72;;;34.78;8.53
80988;BME280;70452;39.386;-3.210;2023-07-24T11:54:55;93861.81;;;34.83;8.84
80988;BME280;70452;39.386;-3.210;2023-07-24T11:57:54;93863.38;;;34.84;8.86
80988;BME280;70452;39.386;-3.210;2023-07-24T12:00:27;93866.59;;;35.12;8.48
80988;BME280;70452;39.386;-3.210;2023-07-24T12:03:05;93858.63;;;35.36;8.02
80988;BME280;70452;39.386;-3.210;2023-07-24T12:05:47;93853.53;;;35.57;7.89
80988;BME280;70452;39.386;-3.210;2023-07-24T12:08:38;93849.44;;;35.71;8.22
80988;BME280;70452;39.386;-3.210;2023-07-24T12:11:18;93854.78;;;35.30;7.96
80988;BME280;70452;39.386;-3.210;2023-07-24T12:13:56;93854.34;;;35.32;7.98
80988;BME280;70452;39.386;-3.210;2023-07-24T12:16:35;93836.44;;;35.47;8.05
80988;BME280;70452;39.386;-3.210;2023-07-24T12:19:16;93842.88;;;35.22;7.26
80988;BME280;70452;39.386;-3.210;2023-07-24T12:21:55;93853.53;;;35.31;7.53
80988;BME280;70452;39.386;-3.210;2023-07-24T12:24:33;93838.47;;;35.34;7.50
80988;BME280;70452;39.386;-3.210;2023-07-24T12:27:07;93834.06;;;35.72;7.50
80988;BME280;70452;39.386;-3.210;2023-07-24T12:29:45;93842.31;;;35.66;8.23
80988;BME280;70452;39.386;-3.210;2023-07-24T12:32:20;93831.00;;;35.53;7.86
80988;BME280;70452;39.386;-3.210;2023-07-24T12:35:01;93834.38;;;35.48;8.21
80988;BME280;70452;39.386;-3.210;2023-07-24T12:37:39;93840.97;;;35.32;7.66
80988;BME280;70452;39.386;-3.210;2023-07-24T12:40:23;93837.81;;;35.30;6.84
80988;BME280;70452;39.386;-3.210;2023-07-24T12:43:01;93829.19;;;35.46;6.78
80988;BME280;70452;39.386;-3.210;2023-07-24T12:45:35;93821.94;;;35.71;7.70
80988;BME280;70452;39.386;-3.210;2023-07-24T12:48:10;93836.09;;;35.71;8.08
80988;BME280;70452;39.386;-3.210;2023-07-24T12:51:02;93818.41;;;35.67;6.67
80988;BME280;70452;39.386;-3.210;2023-07-24T12:53:36;93824.75;;;35.84;6.47
80988;BME280;70452;39.386;-3.210;2023-07-24T12:56:11;93809.56;;;35.91;6.70
80988;BME280;70452;39.386;-3.210;2023-07-24T12:58:58;93796.22;;;36.13;6.60
80988;BME280;70452;39.386;-3.210;2023-07-24T13:01:33;93809.09;;;35.92;6.28
80988;BME280;70452;39.386;-3.210;2023-07-24T13:04:24;93811.28;;;35.62;6.23
80988;BME280;70452;39.386;-3.210;2023-07-24T13:06:56;93797.00;;;35.66;6.48
80988;BME280;70452;39.386;-3.210;2023-07-24T13:09:48;93799.97;;;35.62;6.85
80988;BME280;70452;39.386;-3.210;2023-07-24T13:12:41;93796.34;;;35.49;6.84
80988;BME280;70452;39.386;-3.210;2023-07-24T13:15:23;93796.44;;;35.58;7.32
80988;BME280;70452;39.386;-3.210;2023-07-24T13:18:04;93787.41;;;36.11;6.98
80988;BME280;70452;39.386;-3.210;2023-07-24T13:20:39;93793.25;;;36.30;7.12
80988;BME280;70452;39.386;-3.210;2023-07-24T13:23:13;93779.59;;;36.59;7.12
80988;BME280;70452;39.386;-3.210;2023-07-24T13:26:06;93785.59;;;37.06;6.76
80988;BME280;70452;39.386;-3.210;2023-07-24T13:28:42;93781.41;;;36.88;6.55
80988;BME280;70452;39.386;-3.210;2023-07-24T13:31:27;93784.75;;;36.74;6.91
80988;BME280;70452;39.386;-3.210;2023-07-24T13:34:02;93785.34;;;36.12;7.36
80988;BME280;70452;39.386;-3.210;2023-07-24T13:36:38;93781.97;;;36.61;7.33
80988;BME280;70452;39.386;-3.210;2023-07-24T13:39:12;93770.97;;;36.63;7.61
80988;BME280;70452;39.386;-3.210;2023-07-24T13:41:42;93776.03;;;36.46;7.84
80988;BME280;70452;39.386;-3.210;2023-07-24T13:44:22;93765.28;;;36.63;7.43
80988;BME280;70452;39.386;-3.210;2023-07-24T13:47:00;93773.66;;;36.67;7.79
80988;BME280;70452;39.386;-3.210;2023-07-24T13:49:36;93766.94;;;36.51;7.70
80988;BME280;70452;39.386;-3.210;2023-07-24T13:52:34;93764.78;;;36.55;8.28
80988;BME280;70452;39.386;-3.210;2023-07-24T13:55:12;93758.69;;;36.88;8.84
80988;BME280;70452;39.386;-3.210;2023-07-24T13:57:55;93767.19;;;36.66;8.39
80988;BME280;70452;39.386;-3.210;2023-07-24T14:00:36;93759.00;;;36.90;8.21
80988;BME280;70452;39.386;-3.210;2023-07-24T14:03:26;93761.13;;;36.77;8.27
80988;BME280;70452;39.386;-3.210;2023-07-24T14:06:24;93749.72;;;36.46;8.56
80988;BME280;70452;39.386;-3.210;2023-07-24T14:08:58;93743.88;;;36.40;7.67
80988;BME280;70452;39.386;-3.210;2023-07-24T14:11:37;93752.38;;;36.40;8.31
80988;BME280;70452;39.386;-3.210;2023-07-24T14:14:06;93743.78;;;36.53;8.68
80988;BME280;70452;39.386;-3.210;2023-07-24T14:16:38;93747.63;;;36.59;8.55
80988;BME280;70452;39.386;-3.210;2023-07-24T14:19:21;93749.41;;;36.44;9.27
80988;BME280;70452;39.386;-3.210;2023-07-24T14:22:01;93738.66;;;36.38;9.53